Time;durP1;ratioP1;P1;durP2;ratioP2;P2;SDS_P1;SDS_P2;PMS_P1;PMS_P2;Temp;Humidity;BMP_temperature;BMP_pressure;BME280_temperature;BME280_humidity;BME280_pressure;Samples;Min_cycle;Max_cycle;Signal;HPM_P1;HPM_P2
2023/08/02 00:00:41;;;;;;;10.00;3.67;;;;;;;15.20;94.20;100011.50;4982116;28;20130;-76
2023/08/02 00:03:09;;;;;;;7.10;3.30;;;;;;;15.22;94.26;100010.44;4967923;28;20047;-77
2023/08/02 00:05:39;;;;;;;8.82;3.50;;;;;;;15.24;94.39;100010.38;4989407;28;20998;-77
2023/08/02 00:08:06;;;;;;;8.45;4.03;;;;;;;15.24;94.31;100001.53;4990579;28;20039;-77
2023/08/02 00:10:36;;;;;;;9.50;3.67;;;;;;;15.25;94.46;99995.28;4972272;28;20050;-77
2023/08/02 00:13:05;;;;;;;11.82;4.03;;;;;;;15.24;94.16;99989.13;4971560;28;20081;-78
2023/08/02 00:15:32;;;;;;;9.75;3.67;;;;;;;15.25;94.46;99984.66;4973052;28;20650;-77
2023/08/02 00:17:59;;;;;;;6.60;3.22;;;;;;;15.23;94.39;99976.78;4988992;28;20100;-77
2023/08/02 00:20:27;;;;;;;6.50;3.25;;;;;;;15.19;94.09;99964.66;4973306;28;20061;-78
2023/08/02 00:22:54;;;;;;;8.23;3.40;;;;;;;15.14;94.44;99972.06;4991568;28;20034;-78
2023/08/02 00:25:22;;;;;;;8.25;3.53;;;;;;;15.11;94.53;99978.41;4989021;28;20130;-77
2023/08/02 00:27:50;;;;;;;9.63;3.30;;;;;;;15.07;94.76;99983.06;4989300;28;20133;-78
2023/08/02 00:30:17;;;;;;;7.53;3.47;;;;;;;15.04;95.33;99983.28;4989171;28;20047;-77
2023/08/02 00:32:46;;;;;;;8.90;3.30;;;;;;;15.02;95.19;99984.28;4987059;28;20038;-75
2023/08/02 00:35:15;;;;;;;6.85;3.05;;;;;;;14.99;95.57;99981.84;4988995;28;21474;-75
2023/08/02 00:37:44;;;;;;;7.82;2.88;;;;;;;14.98;95.83;99990.75;4989954;28;20042;-75
2023/08/02 00:40:12;;;;;;;6.10;3.20;;;;;;;14.95;95.86;99994.47;4981172;28;20065;-75
2023/08/02 00:42:39;;;;;;;8.88;3.17;;;;;;;14.93;95.95;99992.84;4972192;28;20061;-75
2023/08/02 00:45:07;;;;;;;8.68;3.08;;;;;;;14.89;96.37;99986.88;4970660;28;20042;-74
2023/08/02 00:47:35;;;;;;;6.30;3.00;;;;;;;14.86;96.43;99985.25;4988737;28;20175;-75
2023/08/02 00:50:04;;;;;;;14.63;3.33;;;;;;;14.86;96.58;99993.22;4987202;28;20553;-77
2023/08/02 00:52:33;;;;;;;7.97;3.10;;;;;;;14.85;96.75;99982.72;4985320;28;20038;-75
2023/08/02 00:55:00;;;;;;;7.28;2.92;;;;;;;14.82;96.84;99983.72;4978381;28;20092;-76
2023/08/02 00:57:27;;;;;;;7.00;3.30;;;;;;;14.83;97.05;99982.78;4987642;28;20043;-77
2023/08/02 00:59:54;;;;;;;9.05;2.92;;;;;;;14.81;97.39;99970.56;4984426;28;20043;-77
2023/08/02 01:02:21;;;;;;;7.40;2.92;;;;;;;14.80;97.43;99968.88;4986154;28;20066;-76
2023/08/02 01:04:49;;;;;;;7.53;2.50;;;;;;;14.79;97.81;99959.19;4988408;28;20548;-76
2023/08/02 01:07:28;;;;;;;9.55;2.75;;;;;;;14.78;97.70;99955.69;4971468;28;20046;-74
2023/08/02 01:10:32;;;;;;;6.13;2.75;;;;;;;14.78;97.75;99961.00;4965123;28;20042;-74
2023/08/02 01:13:05;;;;;;;9.32;2.65;;;;;;;14.75;97.77;99962.03;4963772;28;20038;-73
2023/08/02 01:15:34;;;;;;;5.28;2.60;;;;;;;14.73;97.88;99953.34;4972024;28;20072;-74
2023/08/02 01:18:02;;;;;;;6.40;2.80;;;;;;;14.72;97.95;99956.94;4955404;28;20061;-74
2023/08/02 01:20:30;;;;;;;7.95;2.80;;;;;;;14.70;98.09;99952.69;4969704;28;20593;-75
2023/08/02 01:22:58;;;;;;;5.05;2.40;;;;;;;14.70;98.53;99950.03;4985569;28;20034;-74
2023/08/02 01:25:32;;;;;;;5.10;2.72;;;;;;;14.75;98.88;99948.75;4972017;28;20049;-75
2023/08/02 01:28:20;;;;;;;5.68;2.58;;;;;;;14.79;99.40;99946.81;4969023;28;20677;-75
2023/08/02 01:30:50;;;;;;;7.68;2.90;;;;;;;14.84;99.53;99941.22;4956167;28;20072;-75
2023/08/02 01:33:18;;;;;;;5.55;2.40;;;;;;;14.88;99.44;99932.97;4985847;28;20030;-76
2023/08/02 01:35:45;;;;;;;11.70;2.70;;;;;;;14.91;99.46;99942.53;4971397;28;20467;-76
2023/08/02 01:38:13;;;;;;;5.47;2.53;;;;;;;14.93;99.59;99945.94;4987234;28;20046;-75
2023/08/02 01:40:40;;;;;;;4.53;2.53;;;;;;;14.96;99.68;99942.22;4983745;28;20448;-76
2023/08/02 01:43:07;;;;;;;7.68;2.80;;;;;;;14.99;99.68;99932.25;4987212;28;20076;-76
2023/08/02 01:45:34;;;;;;;5.95;2.30;;;;;;;15.04;99.58;99930.19;4989253;28;20451;-75
2023/08/02 01:48:03;;;;;;;4.85;2.40;;;;;;;15.09;99.67;99937.84;4983176;28;20062;-76
2023/08/02 01:50:30;;;;;;;6.63;2.40;;;;;;;15.13;99.16;99947.31;4987888;28;20137;-75
2023/08/02 01:52:57;;;;;;;6.32;2.50;;;;;;;15.15;99.47;99941.94;4989159;28;20141;-75
2023/08/02 01:55:24;;;;;;;5.97;2.30;;;;;;;15.20;99.36;99932.72;4989517;28;20046;-75
2023/08/02 01:57:51;;;;;;;5.35;2.50;;;;;;;15.22;99.25;99927.28;4970686;28;20038;-75
2023/08/02 02:00:19;;;;;;;7.85;2.85;;;;;;;15.21;99.56;99921.13;4971544;28;20050;-75
2023/08/02 02:02:46;;;;;;;4.22;2.65;;;;;;;15.24;99.60;99908.59;4970714;28;20089;-76
2023/08/02 02:05:14;;;;;;;5.22;2.58;;;;;;;15.27;99.07;99901.28;4986061;28;20147;-76
2023/08/02 02:07:42;;;;;;;8.18;2.88;;;;;;;15.30;99.34;99910.88;4982500;28;20046;-75
2023/08/02 02:10:10;;;;;;;6.63;2.65;;;;;;;15.29;99.32;99894.09;4970244;28;20039;-75
2023/08/02 02:12:39;;;;;;;6.05;2.58;;;;;;;15.32;99.46;99901.84;4987446;28;20494;-76
2023/08/02 02:15:07;;;;;;;5.35;2.55;;;;;;;15.35;99.46;99890.19;4985176;28;20042;-75
2023/08/02 02:17:35;;;;;;;7.05;2.63;;;;;;;15.35;99.77;99876.91;4962278;28;20101;-76
2023/08/02 02:20:02;;;;;;;5.75;2.88;;;;;;;15.37;99.63;99890.94;4987494;28;20751;-76
2023/08/02 02:22:30;;;;;;;8.45;2.90;;;;;;;15.35;99.63;99877.78;4988291;28;20406;-75
2023/08/02 02:24:57;;;;;;;8.23;2.80;;;;;;;15.36;99.84;99868.81;4969430;28;20053;-76
2023/08/02 02:27:25;;;;;;;6.53;2.70;;;;;;;15.35;99.85;99864.50;4985970;28;20612;-75
2023/08/02 02:29:52;;;;;;;7.05;2.72;;;;;;;15.37;99.96;99848.44;4985449;28;20505;-75
2023/08/02 02:32:19;;;;;;;8.27;2.90;;;;;;;15.36;100.00;99846.75;4987234;28;20106;-75
2023/08/02 02:34:46;;;;;;;12.80;3.65;;;;;;;15.36;100.00;99842.25;4987076;28;20092;-75
2023/08/02 02:37:14;;;;;;;6.55;2.83;;;;;;;15.38;100.00;99831.56;4988787;28;20042;-75
2023/08/02 02:39:42;;;;;;;9.15;3.10;;;;;;;15.40;100.00;99829.66;4954791;28;20070;-75
2023/08/02 02:42:09;;;;;;;5.07;2.63;;;;;;;15.42;100.00;99821.59;4986285;28;20043;-75
2023/08/02 02:44:44;;;;;;;7.00;3.15;;;;;;;15.44;100.00;99809.06;4967670;28;20054;-75
2023/08/02 02:47:12;;;;;;;7.10;3.05;;;;;;;15.43;100.00;99812.66;4980559;28;20054;-76
2023/08/02 02:49:39;;;;;;;7.00;2.80;;;;;;;15.44;100.00;99825.00;4968296;28;20053;-76
2023/08/02 02:52:07;;;;;;;7.55;3.10;;;;;;;15.45;100.00;99808.94;4986296;28;20053;-76
2023/08/02 02:54:34;;;;;;;8.75;3.40;;;;;;;15.47;100.00;99803.53;4969972;28;20050;-76
2023/08/02 02:57:01;;;;;;;8.70;3.03;;;;;;;15.48;100.00;99792.81;4981302;28;20050;-76
2023/08/02 02:59:28;;;;;;;8.27;3.20;;;;;;;15.48;100.00;99789.28;4968654;28;20031;-75
2023/08/02 03:01:57;;;;;;;6.50;2.78;;;;;;;15.50;100.00;99795.34;4984750;28;20038;-73
2023/08/02 03:04:24;;;;;;;6.00;2.97;;;;;;;15.50;100.00;99790.91;4969596;28;20406;-74
2023/08/02 03:06:52;;;;;;;6.93;3.17;;;;;;;15.53;100.00;99792.50;4988872;28;20069;-73
2023/08/02 03:09:20;;;;;;;6.15;2.85;;;;;;;15.55;100.00;99790.59;4983244;28;20251;-73
2023/08/02 03:11:47;;;;;;;8.80;3.10;;;;;;;15.56;100.00;99792.31;4982707;28;20042;-75
2023/08/02 03:14:14;;;;;;;5.95;3.00;;;;;;;15.58;100.00;99793.03;4969848;28;20046;-75
2023/08/02 03:16:43;;;;;;;12.70;3.28;;;;;;;15.58;100.00;99782.41;4970255;28;20042;-75
2023/08/02 03:19:13;;;;;;;8.35;3.40;;;;;;;15.60;100.00;99775.19;4985150;28;20042;-75
2023/08/02 03:21:40;;;;;;;9.65;3.45;;;;;;;15.61;100.00;99778.72;4969406;28;20787;-75
2023/08/02 03:24:07;;;;;;;6.50;2.90;;;;;;;15.62;100.00;99767.97;4966463;28;20105;-75
2023/08/02 03:26:34;;;;;;;12.80;3.60;;;;;;;15.65;100.00;99753.63;4942639;28;20047;-75
2023/08/02 03:29:01;;;;;;;8.10;3.08;;;;;;;15.64;100.00;99742.16;4970144;28;20046;-74
2023/08/02 03:31:28;;;;;;;6.15;3.20;;;;;;;15.65;100.00;99735.88;4971711;28;20097;-75
2023/08/02 03:33:56;;;;;;;8.45;3.08;;;;;;;15.65;99.59;99725.25;4984194;28;20050;-76
2023/08/02 03:36:23;;;;;;;5.95;2.53;;;;;;;15.66;99.36;99729.63;4968344;28;20117;-76
2023/08/02 03:38:50;;;;;;;7.63;2.90;;;;;;;15.66;98.83;99718.13;4984444;28;20042;-75
2023/08/02 03:41:17;;;;;;;7.53;2.67;;;;;;;15.67;98.87;99717.16;4976819;28;20126;-75
2023/08/02 03:43:44;;;;;;;10.18;2.88;;;;;;;15.66;98.55;99719.00;4967555;28;20034;-75
2023/08/02 03:46:11;;;;;;;4.97;2.70;;;;;;;15.66;98.85;99718.13;4948532;28;20126;-75
2023/08/02 03:48:39;;;;;;;5.88;2.55;;;;;;;15.64;98.75;99715.59;4964282;28;20486;-75
2023/08/02 03:51:06;;;;;;;7.00;2.67;;;;;;;15.63;99.09;99728.94;4986075;28;20652;-75
2023/08/02 03:53:33;;;;;;;6.28;2.78;;;;;;;15.64;99.57;99710.28;4986073;28;20049;-75
2023/08/02 03:56:00;;;;;;;9.30;3.10;;;;;;;15.62;99.20;99709.53;4974325;28;20130;-75
2023/08/02 03:58:28;;;;;;;8.27;3.10;;;;;;;15.60;99.52;99711.44;4985934;28;20054;-76
2023/08/02 04:00:56;;;;;;;6.85;2.80;;;;;;;15.56;99.72;99698.47;4982003;28;20073;-76
2023/08/02 04:03:23;;;;;;;6.07;2.72;;;;;;;15.55;99.60;99694.97;4983749;28;20178;-76
2023/08/02 04:05:50;;;;;;;8.48;2.90;;;;;;;15.52;99.84;99695.19;4987136;28;20125;-76
2023/08/02 04:08:18;;;;;;;7.95;2.90;;;;;;;15.52;100.00;99689.88;4954497;28;20105;-76
2023/08/02 04:10:45;;;;;;;9.52;2.97;;;;;;;15.50;100.00;99673.19;4983319;28;20046;-75
2023/08/02 04:13:12;;;;;;;5.38;2.70;;;;;;;15.51;100.00;99672.22;4986281;28;20419;-75
2023/08/02 04:15:39;;;;;;;7.45;2.75;;;;;;;15.50;100.00;99671.41;4981316;28;20675;-76
2023/08/02 04:18:06;;;;;;;6.57;2.83;;;;;;;15.51;100.00;99667.78;4970763;28;20070;-75
2023/08/02 04:20:38;;;;;;;5.93;2.63;;;;;;;15.49;100.00;99663.50;4985235;28;20104;-75
2023/08/02 04:23:05;;;;;;;8.65;3.08;;;;;;;15.49;100.00;99661.72;4985925;28;20066;-76
2023/08/02 04:25:32;;;;;;;8.02;2.75;;;;;;;15.48;100.00;99660.03;4983862;28;20042;-75
2023/08/02 04:27:59;;;;;;;9.05;3.55;;;;;;;15.50;100.00;99643.97;4987315;28;20143;-75
2023/08/02 04:30:28;;;;;;;7.60;3.10;;;;;;;15.51;100.00;99641.22;4966204;28;20451;-75
2023/08/02 04:32:55;;;;;;;6.40;3.00;;;;;;;15.53;100.00;99633.13;4971272;28;20061;-76
2023/08/02 04:35:22;;;;;;;8.65;2.60;;;;;;;15.53;100.00;99618.03;4981383;28;20042;-76
2023/08/02 04:37:49;;;;;;;7.25;2.75;;;;;;;15.56;100.00;99616.13;4970817;28;20186;-77
2023/08/02 04:40:19;;;;;;;7.32;2.95;;;;;;;15.56;100.00;99609.03;4983942;28;20049;-75
2023/08/02 04:42:47;;;;;;;8.88;2.58;;;;;;;15.58;100.00;99599.13;4982781;28;20042;-77
2023/08/02 04:45:17;;;;;;;5.07;2.90;;;;;;;15.58;100.00;99593.81;4982382;28;20128;-77
2023/08/02 04:47:47;;;;;;;8.75;3.00;;;;;;;15.59;100.00;99589.34;4983805;28;20050;-78
2023/08/02 04:50:14;;;;;;;5.13;2.88;;;;;;;15.58;100.00;99580.53;4965545;28;20042;-77
2023/08/02 04:52:41;;;;;;;7.95;2.85;;;;;;;15.57;100.00;99570.84;4979216;28;20746;-77
2023/08/02 04:55:10;;;;;;;7.28;2.90;;;;;;;15.58;100.00;99569.06;4981239;28;20072;-76
2023/08/02 04:57:40;;;;;;;6.30;2.55;;;;;;;15.60;100.00;99556.53;4966909;28;20073;-73
2023/08/02 05:00:07;;;;;;;6.45;2.70;;;;;;;15.64;100.00;99556.19;4986330;28;20047;-73
2023/08/02 05:02:36;;;;;;;8.38;2.92;;;;;;;15.65;100.00;99554.38;4989580;28;20093;-74
2023/08/02 05:05:04;;;;;;;5.32;2.65;;;;;;;15.68;100.00;99547.03;4974099;28;20480;-74
2023/08/02 05:07:35;;;;;;;5.80;2.70;;;;;;;15.70;100.00;99538.97;4979961;28;20136;-73
2023/08/02 05:10:07;;;;;;;7.47;3.42;;;;;;;15.71;100.00;99532.69;4987234;28;20050;-73
2023/08/02 05:12:38;;;;;;;6.05;2.72;;;;;;;15.73;100.00;99529.91;4989875;28;20108;-73
2023/08/02 05:15:07;;;;;;;8.55;3.20;;;;;;;15.73;100.00;99522.78;4990450;28;20561;-71
2023/08/02 05:17:34;;;;;;;5.68;3.22;;;;;;;15.76;100.00;99519.06;4987834;28;20209;-73
2023/08/02 05:20:01;;;;;;;6.15;2.80;;;;;;;15.79;100.00;99511.72;4990252;28;20104;-74
2023/08/02 05:22:31;;;;;;;7.85;3.05;;;;;;;15.86;100.00;99520.13;4990613;28;20042;-74
2023/08/02 05:24:58;;;;;;;6.95;3.38;;;;;;;15.84;100.00;99506.94;4976151;28;20043;-74
2023/08/02 05:27:25;;;;;;;6.10;2.67;;;;;;;15.88;100.00;99498.75;4990282;28;20046;-74
2023/08/02 05:29:52;;;;;;;6.55;2.78;;;;;;;15.92;100.00;99500.22;4990846;28;20045;-73
2023/08/02 05:32:20;;;;;;;6.88;3.13;;;;;;;15.94;100.00;99501.81;4988986;28;20506;-75
2023/08/02 05:34:47;;;;;;;6.57;3.00;;;;;;;15.95;100.00;99503.50;4986236;28;20074;-74
2023/08/02 05:37:14;;;;;;;8.95;3.58;;;;;;;15.93;100.00;99489.47;4975300;28;20571;-73
2023/08/02 05:39:41;;;;;;;7.63;3.10;;;;;;;15.97;100.00;99476.81;4988877;28;20054;-74
2023/08/02 05:42:08;;;;;;;8.27;3.15;;;;;;;16.00;100.00;99473.94;4972778;28;20587;-74
2023/08/02 05:44:36;;;;;;;8.52;3.22;;;;;;;16.02;100.00;99471.16;4987422;28;20080;-74
2023/08/02 05:47:04;;;;;;;8.73;3.22;;;;;;;16.01;100.00;99462.34;4979736;28;20050;-73
2023/08/02 05:49:31;;;;;;;9.95;3.25;;;;;;;16.01;100.00;99459.69;4970030;28;20052;-74
2023/08/02 05:51:58;;;;;;;8.90;3.20;;;;;;;15.93;100.00;99470.88;4953722;28;20050;-74
2023/08/02 05:54:25;;;;;;;7.07;3.38;;;;;;;15.86;100.00;99461.69;4988918;28;20054;-74
2023/08/02 05:56:52;;;;;;;8.55;3.33;;;;;;;15.79;100.00;99460.38;4988564;28;20494;-74
2023/08/02 05:59:20;;;;;;;8.40;3.70;;;;;;;15.76;100.00;99450.84;4961763;28;20051;-72
2023/08/02 06:01:47;;;;;;;8.07;3.90;;;;;;;15.72;100.00;99445.88;4987125;28;20054;-73
2023/08/02 06:04:14;;;;;;;7.88;3.97;;;;;;;15.67;100.00;99436.41;4989156;28;20046;-72
2023/08/02 06:06:43;;;;;;;9.60;3.88;;;;;;;15.68;100.00;99418.69;4973685;28;20042;-71
2023/08/02 06:09:10;;;;;;;6.78;3.42;;;;;;;15.71;100.00;99413.16;4986998;28;20049;-71
2023/08/02 06:11:37;;;;;;;7.45;4.05;;;;;;;15.75;100.00;99401.31;4989480;28;20104;-71
2023/08/02 06:14:05;;;;;;;7.03;4.28;;;;;;;15.78;100.00;99416.16;4985285;28;20046;-71
2023/08/02 06:16:32;;;;;;;7.05;4.03;;;;;;;15.80;100.00;99403.63;4987075;28;20065;-71
2023/08/02 06:18:59;;;;;;;8.48;4.72;;;;;;;15.77;100.00;99391.44;4988494;28;20100;-71
2023/08/02 06:21:26;;;;;;;8.18;4.80;;;;;;;15.77;100.00;99387.94;4990253;28;20034;-71
2023/08/02 06:23:54;;;;;;;8.20;4.00;;;;;;;15.76;100.00;99380.94;4985772;28;20100;-71
2023/08/02 06:26:21;;;;;;;7.38;4.13;;;;;;;15.79;100.00;99372.69;4993053;28;20129;-71
2023/08/02 06:28:48;;;;;;;9.55;5.00;;;;;;;15.82;100.00;99357.38;4991216;28;20467;-71
2023/08/02 06:31:15;;;;;;;8.05;4.55;;;;;;;15.89;100.00;99354.31;4972662;28;20526;-71
2023/08/02 06:33:43;;;;;;;11.25;4.75;;;;;;;15.91;100.00;99349.72;4986719;28;20651;-71
2023/08/02 06:36:10;;;;;;;9.50;4.53;;;;;;;15.94;100.00;99339.69;4972189;28;20051;-71
2023/08/02 06:38:38;;;;;;;9.95;4.82;;;;;;;15.93;100.00;99338.00;4986686;28;20129;-71
2023/08/02 06:41:05;;;;;;;8.40;4.10;;;;;;;15.92;100.00;99331.00;4990589;28;20098;-71
2023/08/02 06:43:33;;;;;;;7.32;4.22;;;;;;;15.91;100.00;99329.28;4994505;28;20121;-71
2023/08/02 06:46:00;;;;;;;6.70;4.18;;;;;;;15.90;100.00;99327.59;4988913;28;20042;-72
2023/08/02 06:48:27;;;;;;;7.20;4.20;;;;;;;15.89;100.00;99320.59;4986826;28;20042;-71
2023/08/02 06:50:57;;;;;;;5.85;3.75;;;;;;;15.92;100.00;99309.72;4984520;28;20041;-71
2023/08/02 06:53:24;;;;;;;6.55;3.78;;;;;;;15.95;100.00;99301.53;4986235;28;20050;-71
2023/08/02 06:55:51;;;;;;;5.15;3.25;;;;;;;16.03;100.00;99289.44;4989738;28;20046;-71
2023/08/02 06:58:19;;;;;;;6.28;3.78;;;;;;;16.03;100.00;99284.13;4956539;28;20058;-71
2023/08/02 07:00:46;;;;;;;5.80;3.15;;;;;;;16.04;100.00;99277.84;4983936;28;20537;-71
2023/08/02 07:03:13;;;;;;;4.65;2.83;;;;;;;16.04;100.00;99276.03;4980831;28;20039;-72
2023/08/02 07:05:41;;;;;;;5.38;2.97;;;;;;;16.07;100.00;99267.81;4978790;28;20056;-71
2023/08/02 07:08:08;;;;;;;4.57;2.60;;;;;;;16.06;100.00;99257.31;4986033;28;21368;-72
2023/08/02 07:10:35;;;;;;;5.05;3.00;;;;;;;16.08;100.00;99239.41;4960849;28;20042;-77
2023/08/02 07:13:03;;;;;;;4.13;2.60;;;;;;;16.07;100.00;99233.28;4988827;28;20049;-79
2023/08/02 07:15:30;;;;;;;4.78;2.70;;;;;;;16.04;100.00;99209.59;4976752;28;20580;-75
2023/08/02 07:17:57;;;;;;;4.32;2.15;;;;;;;16.01;100.00;99212.50;4954489;28;20490;-73
2023/08/02 07:20:24;;;;;;;3.10;2.00;;;;;;;15.97;100.00;99205.72;4987587;28;20659;-75
2023/08/02 07:22:51;;;;;;;3.75;2.10;;;;;;;15.90;100.00;99200.03;4987427;28;20038;-75
2023/08/02 07:25:18;;;;;;;3.65;2.20;;;;;;;15.86;100.00;99193.31;4986864;28;20042;-75
2023/08/02 07:27:46;;;;;;;2.40;2.08;;;;;;;15.89;100.00;99184.22;4983839;28;20042;-75
2023/08/02 07:30:13;;;;;;;3.67;2.20;;;;;;;15.90;100.00;99180.63;4967700;28;20057;-75
2023/08/02 07:32:41;;;;;;;4.80;2.17;;;;;;;15.88;100.00;99179.88;4971303;28;20069;-75
2023/08/02 07:35:08;;;;;;;2.70;1.60;;;;;;;15.88;100.00;99177.22;4990011;28;20675;-76
2023/08/02 07:37:36;;;;;;;2.85;1.85;;;;;;;15.84;100.00;99166.00;4971810;28;20058;-76
2023/08/02 07:40:06;;;;;;;3.65;2.08;;;;;;;15.84;100.00;99172.16;4976717;28;20576;-75
2023/08/02 07:42:33;;;;;;;3.95;2.00;;;;;;;15.86;100.00;99161.41;4988123;28;20045;-75
2023/08/02 07:45:05;;;;;;;3.80;1.95;;;;;;;15.87;100.00;99163.09;4984000;28;20070;-75
2023/08/02 07:47:33;;;;;;;5.30;2.00;;;;;;;15.93;100.00;99153.78;4987259;28;20065;-76
2023/08/02 07:50:04;;;;;;;4.55;1.90;;;;;;;15.96;100.00;99148.22;4971813;28;20077;-75
2023/08/02 07:52:32;;;;;;;4.25;2.00;;;;;;;15.97;100.00;99148.09;4955201;28;20054;-76
2023/08/02 07:55:03;;;;;;;5.32;2.20;;;;;;;15.99;100.00;99142.69;4988276;28;20153;-76
2023/08/02 07:57:33;;;;;;;2.83;1.83;;;;;;;16.02;100.00;99147.75;4969891;28;20070;-76
2023/08/02 08:00:01;;;;;;;3.15;1.88;;;;;;;16.07;100.00;99134.09;4988531;28;20506;-76
2023/08/02 08:02:39;;;;;;;2.53;1.90;;;;;;;16.09;100.00;99133.00;4980175;28;20129;-76
2023/08/02 08:05:07;;;;;;;2.50;1.80;;;;;;;16.10;100.00;99131.16;4969117;28;20031;-77
2023/08/02 08:07:34;;;;;;;3.13;1.77;;;;;;;16.11;100.00;99127.53;4989524;28;20042;-76
2023/08/02 08:10:02;;;;;;;3.00;1.73;;;;;;;16.12;100.00;99113.28;4982967;28;21505;-76
2023/08/02 08:12:29;;;;;;;4.38;2.10;;;;;;;16.15;100.00;99110.41;4986898;28;20115;-75
2023/08/02 08:14:56;;;;;;;4.38;2.00;;;;;;;16.20;100.00;99108.19;4975634;28;20038;-77
2023/08/02 08:17:23;;;;;;;3.30;1.73;;;;;;;16.29;100.00;99102.13;4977555;28;20550;-76
2023/08/02 08:19:51;;;;;;;4.05;1.80;;;;;;;16.41;100.00;99099.44;4988402;28;20668;-77
2023/08/02 08:22:19;;;;;;;3.33;1.70;;;;;;;16.52;100.00;99093.22;4990225;28;20049;-77
2023/08/02 08:24:49;;;;;;;4.03;1.70;;;;;;;16.62;100.00;99086.19;4973809;28;20034;-77
2023/08/02 08:27:16;;;;;;;2.85;1.80;;;;;;;16.68;100.00;99079.50;4971919;28;20039;-79
2023/08/02 08:29:43;;;;;;;2.75;1.73;;;;;;;16.68;100.00;99087.47;4985674;28;20516;-79
2023/08/02 08:32:10;;;;;;;2.65;1.88;;;;;;;16.66;100.00;99071.63;4992465;28;20130;-80
2023/08/02 08:34:38;;;;;;;2.47;2.00;;;;;;;16.65;100.00;99066.44;4989770;28;20031;-80
2023/08/02 08:37:05;;;;;;;3.47;1.90;;;;;;;16.65;100.00;99061.13;4992029;28;20050;-79
2023/08/02 08:39:32;;;;;;;2.10;1.75;;;;;;;16.61;100.00;99048.06;4990743;28;20069;-80
2023/08/02 08:41:59;;;;;;;2.60;1.70;;;;;;;16.62;100.00;99043.63;4981054;28;20847;-80
2023/08/02 08:44:26;;;;;;;2.63;2.03;;;;;;;16.64;100.00;99046.97;4991396;28;20035;-79
2023/08/02 08:46:59;;;;;;;3.15;1.85;;;;;;;16.68;100.00;99045.75;4988446;28;20506;-80
2023/08/02 08:49:26;;;;;;;2.63;1.52;;;;;;;16.73;100.00;99037.38;4987614;28;20038;-78
2023/08/02 08:52:03;;;;;;;3.83;1.65;;;;;;;16.78;100.00;99032.53;4981915;28;20042;-81
2023/08/02 08:54:32;;;;;;;1.92;1.48;;;;;;;16.83;100.00;99040.94;4992737;28;20046;-82
2023/08/02 08:57:02;;;;;;;2.42;1.90;;;;;;;16.87;100.00;99047.69;4992079;28;20112;-77
2023/08/02 08:59:30;;;;;;;2.15;1.58;;;;;;;16.90;100.00;99035.94;4980403;28;20109;-77
2023/08/02 09:01:59;;;;;;;3.40;1.85;;;;;;;16.93;100.00;99041.00;4964451;28;20041;-79
2023/08/02 09:04:26;;;;;;;3.20;1.90;;;;;;;16.92;100.00;99040.16;4973611;28;20046;-77
2023/08/02 09:06:53;;;;;;;2.10;1.80;;;;;;;16.90;100.00;99042.09;4959803;28;20400;-75
2023/08/02 09:09:21;;;;;;;3.35;2.13;;;;;;;17.02;100.00;99036.72;4971914;28;20046;-74
2023/08/02 09:11:49;;;;;;;4.38;2.78;;;;;;;17.11;100.00;99025.28;4992281;28;20042;-75
2023/08/02 09:14:17;;;;;;;3.30;1.90;;;;;;;17.19;100.00;99027.28;4991879;28;20042;-74
2023/08/02 09:16:57;;;;;;;2.97;1.83;;;;;;;17.21;100.00;99028.00;4990139;28;20058;-76
2023/08/02 09:19:27;;;;;;;2.60;2.08;;;;;;;17.26;100.00;99025.78;4987708;28;20118;-76
2023/08/02 09:22:15;;;;;;;3.28;1.90;;;;;;;17.39;100.00;99022.91;4978773;28;20049;-77
2023/08/02 09:24:45;;;;;;;2.30;1.75;;;;;;;17.51;100.00;99026.28;4992069;28;20868;-76
2023/08/02 09:27:17;;;;;;;2.30;1.75;;;;;;;17.60;100.00;99014.81;4991188;28;20049;-77
2023/08/02 09:29:48;;;;;;;3.33;1.80;;;;;;;17.68;100.00;99009.66;4967441;28;20066;-78
2023/08/02 09:32:21;;;;;;;3.33;1.80;;;;;;;17.81;100.00;99004.06;4979000;28;20050;-77
2023/08/02 09:34:52;;;;;;;2.30;2.08;;;;;;;17.94;100.00;98994.97;4989298;28;20101;-76
2023/08/02 09:37:33;;;;;;;3.40;2.13;;;;;;;18.03;100.00;99002.16;4974545;28;20085;-76
2023/08/02 09:40:04;;;;;;;4.72;1.90;;;;;;;18.16;100.00;99004.56;4988435;28;20419;-76
2023/08/02 09:42:32;;;;;;;2.22;1.80;;;;;;;18.30;100.00;98998.78;4965430;28;20034;-76
2023/08/02 09:45:03;;;;;;;2.88;2.10;;;;;;;18.50;100.00;98993.44;4989949;28;20089;-77
2023/08/02 09:47:30;;;;;;;3.10;2.00;;;;;;;18.61;100.00;98997.78;4992874;28;20146;-76
2023/08/02 09:50:04;;;;;;;3.50;1.90;;;;;;;18.74;100.00;98984.13;4986368;28;20049;-81
2023/08/02 09:52:34;;;;;;;2.22;1.85;;;;;;;18.86;100.00;98977.63;4987966;28;20046;-79
2023/08/02 09:55:01;;;;;;;2.90;1.90;;;;;;;19.06;100.00;98981.09;4989796;28;20046;-76
2023/08/02 09:57:30;;;;;;;2.42;2.00;;;;;;;19.28;100.00;98975.53;4974250;28;20069;-76
2023/08/02 10:00:07;;;;;;;2.13;1.92;;;;;;;19.49;100.00;98965.41;4986666;28;20077;-76
2023/08/02 10:02:40;;;;;;;2.30;2.10;;;;;;;19.77;100.00;98962.72;4975388;28;20786;-75
2023/08/02 10:05:17;;;;;;;2.30;2.00;;;;;;;20.10;100.00;98963.03;4990076;28;20073;-76
2023/08/02 10:07:50;;;;;;;3.72;2.13;;;;;;;20.32;100.00;98953.72;4990723;28;20502;-76
2023/08/02 10:10:42;;;;;;;2.83;2.17;;;;;;;20.37;100.00;98952.38;4993294;28;20101;-76
2023/08/02 10:13:20;;;;;;;2.50;2.30;;;;;;;20.35;100.00;98949.88;4975078;28;20137;-76
2023/08/02 10:15:49;;;;;;;3.13;2.20;;;;;;;20.37;100.00;98952.38;4990172;28;20031;-75
2023/08/02 10:18:17;;;;;;;3.42;2.35;;;;;;;20.41;100.00;98954.59;4988711;28;20042;-76
2023/08/02 10:20:46;;;;;;;2.53;2.30;;;;;;;20.43;100.00;98949.94;4989061;28;20073;-76
2023/08/02 10:23:13;;;;;;;3.60;2.53;;;;;;;20.48;100.00;98944.97;4991882;28;20445;-76
2023/08/02 10:25:43;;;;;;;4.43;2.28;;;;;;;20.52;100.00;98945.47;4987424;28;20081;-76
2023/08/02 10:28:12;;;;;;;3.20;2.33;;;;;;;20.56;100.00;98948.69;4989734;28;20144;-75
2023/08/02 10:30:43;;;;;;;2.05;1.83;;;;;;;20.65;100.00;98942.38;4963624;28;20053;-75
2023/08/02 10:33:18;;;;;;;3.92;2.17;;;;;;;20.83;100.00;98928.13;4988074;28;20046;-75
2023/08/02 10:36:06;;;;;;;2.33;2.13;;;;;;;21.12;100.00;98930.44;4972755;28;20042;-75
2023/08/02 10:38:38;;;;;;;3.90;2.03;;;;;;;21.17;100.00;98936.13;4979989;28;20038;-75
2023/08/02 10:41:12;;;;;;;2.42;2.13;;;;;;;21.10;100.00;98927.94;4989956;28;20124;-76
2023/08/02 10:44:13;;;;;;;4.05;2.33;;;;;;;21.08;100.00;98911.16;4970699;28;20088;-76
2023/08/02 10:46:40;;;;;;;2.20;2.00;;;;;;;21.42;100.00;98893.34;4984368;28;20121;-76
2023/08/02 10:49:11;;;;;;;3.13;2.30;;;;;;;21.71;100.00;98876.84;4983947;28;20054;-75
2023/08/02 10:51:38;;;;;;;4.25;2.03;;;;;;;21.86;100.00;98878.84;4986527;28;20518;-76
2023/08/02 10:54:23;;;;;;;2.97;1.95;;;;;;;22.01;100.00;98900.47;4988580;28;20049;-76
2023/08/02 10:56:51;;;;;;;3.45;2.03;;;;;;;22.10;100.00;98895.97;4970775;28;20145;-77
2023/08/02 10:59:25;;;;;;;2.20;1.90;;;;;;;22.14;99.76;98894.59;4988032;28;20137;-76
2023/08/02 11:02:07;;;;;;;;;;;;;;;22.02;99.20;98902.16;4987865;28;20113;-76
2023/08/02 11:04:37;;;;;;;2.97;1.83;;;;;;;22.14;100.00;98894.59;4986886;28;19925;-76
2023/08/02 11:07:12;;;;;;;2.05;1.33;;;;;;;22.39;99.85;98876.63;4969719;28;20540;-75
2023/08/02 11:09:40;;;;;;;3.72;1.60;;;;;;;22.51;98.83;98869.09;4985361;28;20495;-77
2023/08/02 11:12:15;;;;;;;6.47;1.52;;;;;;;22.58;99.28;98878.13;4983485;28;20143;-76
2023/08/02 11:14:45;;;;;;;2.85;1.30;;;;;;;22.65;98.81;98881.78;4987279;28;20040;-76
2023/08/02 11:17:22;;;;;;;2.58;1.40;;;;;;;22.71;97.37;98863.31;4967835;28;20050;-75
2023/08/02 11:19:54;;;;;;;1.38;1.20;;;;;;;22.68;96.54;98856.47;4971914;28;20045;-76
2023/08/02 11:22:25;;;;;;;1.65;1.08;;;;;;;22.63;96.89;98840.00;4987049;28;20534;-77
2023/08/02 11:24:54;;;;;;;1.13;1.02;;;;;;;22.55;97.72;98837.38;4975179;28;20058;-76
2023/08/02 11:27:28;;;;;;;1.73;1.00;;;;;;;22.44;96.66;98825.13;4956790;28;20039;-76
2023/08/02 11:30:07;;;;;;;2.55;1.10;;;;;;;22.34;95.12;98804.66;4986439;28;20050;-75
2023/08/02 11:32:46;;;;;;;1.55;1.20;;;;;;;22.29;93.51;98815.09;4987611;28;20521;-75
2023/08/02 11:35:20;;;;;;;1.92;1.30;;;;;;;22.21;95.14;98816.94;4971420;28;20110;-76